Time;durP1;ratioP1;P1;durP2;ratioP2;P2;SDS_P1;SDS_P2;PMS_P1;PMS_P2;Temp;Humidity;BMP_temperature;BMP_pressure;BME280_temperature;BME280_humidity;BME280_pressure;Samples;Min_cycle;Max_cycle;Signal;HPM_P1;HPM_P2
2022/06/17 00:00:51;;;;;;;0.00;0.00;;;;;;;;;;5033216;28;20137;-72
2022/06/17 00:03:20;;;;;;;0.63;0.55;;;;;;;;;;5032349;28;20045;-72
2022/06/17 00:05:48;;;;;;;0.00;0.00;;;;;;;;;;5033173;28;20107;-72
2022/06/17 00:08:19;;;;;;;0.00;0.00;;;;;;;;;;5032908;28;20053;-71
2022/06/17 00:10:48;;;;;;;0.00;0.00;;;;;;;;;;5036826;28;20144;-71
2022/06/17 00:13:17;;;;;;;0.00;0.00;;;;;;;;;;5039395;28;20057;-72
2022/06/17 00:15:47;;;;;;;0.15;0.15;;;;;;;;;;5033307;28;20096;-71
2022/06/17 00:18:16;;;;;;;0.55;0.17;;;;;;;;;;5032808;28;20053;-71
2022/06/17 00:20:45;;;;;;;0.63;0.63;;;;;;;;;;5033135;28;20049;-72
2022/06/17 00:23:14;;;;;;;0.93;0.93;;;;;;;;;;5032774;28;20084;-72
2022/06/17 00:25:45;;;;;;;0.00;0.00;;;;;;;;;;5032277;28;20092;-72
2022/06/17 00:28:14;;;;;;;0.00;0.00;;;;;;;;;;5032088;28;20112;-72
2022/06/17 00:30:43;;;;;;;0.00;0.00;;;;;;;;;;5032805;28;20049;-72
2022/06/17 00:33:12;;;;;;;0.10;0.10;;;;;;;;;;5032979;28;20049;-71
2022/06/17 00:35:42;;;;;;;0.00;0.00;;;;;;;;;;5032367;28;20551;-72
2022/06/17 00:38:11;;;;;;;0.10;0.10;;;;;;;;;;5042822;28;20076;-72
2022/06/17 00:40:40;;;;;;;0.00;0.00;;;;;;;;;;5052470;28;20109;-72
2022/06/17 00:43:12;;;;;;;0.10;0.10;;;;;;;;;;5052214;28;20560;-72
2022/06/17 00:45:43;;;;;;;0.00;0.00;;;;;;;;;;5050787;28;20045;-72
2022/06/17 00:48:16;;;;;;;0.00;0.00;;;;;;;;;;5031845;28;20095;-72
2022/06/17 00:50:47;;;;;;;0.00;0.00;;;;;;;;;;5035562;28;20485;-72
2022/06/17 00:53:18;;;;;;;0.00;0.00;;;;;;;;;;5052305;28;20148;-72
2022/06/17 00:55:48;;;;;;;0.00;0.00;;;;;;;;;;5052104;28;20081;-72
2022/06/17 00:58:18;;;;;;;0.20;0.20;;;;;;;;;;5051453;28;20124;-72
2022/06/17 01:00:47;;;;;;;0.00;0.00;;;;;;;;;;5052495;28;20483;-71
2022/06/17 01:03:19;;;;;;;0.30;0.30;;;;;;;;;;5041130;28;20141;-72
2022/06/17 01:05:50;;;;;;;0.00;0.00;;;;;;;;;;5031578;28;20130;-72
2022/06/17 01:09:57;;;;;;;0.05;0.05;;;;;;;;;;5031704;28;20081;-72
2022/06/17 01:11:11;;;;;;;0.00;0.00;;;;;;;;;;5038801;28;20088;-72
2022/06/17 01:13:40;;;;;;;0.00;0.00;;;;;;;;;;5052134;28;20400;-72
2022/06/17 01:16:09;;;;;;;0.00;0.00;;;;;;;;;;5051947;28;20103;-71
2022/06/17 01:18:42;;;;;;;0.00;0.00;;;;;;;;;;5050872;28;20052;-72
2022/06/17 01:21:15;;;;;;;0.00;0.00;;;;;;;;;;5038579;28;20076;-71
2022/06/17 01:23:45;;;;;;;0.00;0.00;;;;;;;;;;5031396;28;20107;-72
2022/06/17 01:26:14;;;;;;;0.00;0.00;;;;;;;;;;5031736;28;20092;-72
2022/06/17 01:28:42;;;;;;;0.00;0.00;;;;;;;;;;5030528;28;20561;-72
2022/06/17 01:31:11;;;;;;;0.30;0.30;;;;;;;;;;5031596;28;20092;-72
2022/06/17 01:33:40;;;;;;;0.00;0.00;;;;;;;;;;5036583;28;20072;-71
2022/06/17 01:36:10;;;;;;;0.10;0.10;;;;;;;;;;5031561;28;20549;-72
2022/06/17 01:38:40;;;;;;;0.00;0.00;;;;;;;;;;5031081;28;20466;-72
2022/06/17 01:41:10;;;;;;;0.00;0.00;;;;;;;;;;5040368;28;20107;-73
2022/06/17 01:43:41;;;;;;;0.85;0.43;;;;;;;;;;5051182;28;20476;-72
2022/06/17 01:46:12;;;;;;;0.00;0.00;;;;;;;;;;5051306;28;20053;-72
2022/06/17 01:48:43;;;;;;;0.20;0.20;;;;;;;;;;5051256;28;20045;-72
2022/06/17 01:51:12;;;;;;;0.00;0.00;;;;;;;;;;5044674;28;20465;-72
2022/06/17 01:53:43;;;;;;;0.28;0.28;;;;;;;;;;5031426;28;20136;-72
2022/06/17 01:56:15;;;;;;;0.00;0.00;;;;;;;;;;5025306;28;20501;-72
2022/06/17 01:58:47;;;;;;;0.00;0.00;;;;;;;;;;5030488;28;20152;-72
2022/06/17 02:01:16;;;;;;;0.00;0.00;;;;;;;;;;5031092;28;20132;-72
2022/06/17 02:03:48;;;;;;;0.00;0.00;;;;;;;;;;5031548;28;20550;-72
2022/06/17 02:06:20;;;;;;;0.00;0.00;;;;;;;;;;5030789;28;20575;-72
2022/06/17 02:08:48;;;;;;;0.00;0.00;;;;;;;;;;5030828;28;20112;-72
2022/06/17 02:11:18;;;;;;;0.00;0.00;;;;;;;;;;5033122;28;20053;-72
2022/06/17 02:13:47;;;;;;;0.00;0.00;;;;;;;;;;5032147;28;20471;-74
2022/06/17 02:16:15;;;;;;;0.08;0.08;;;;;;;;;;5031047;28;20088;-71
2022/06/17 02:18:45;;;;;;;0.00;0.00;;;;;;;;;;5030543;28;20501;-71
2022/06/17 02:21:16;;;;;;;4.57;0.90;;;;;;;;;;5031042;28;20064;-72
2022/06/17 02:23:44;;;;;;;0.00;0.00;;;;;;;;;;5031738;28;20107;-71
2022/06/17 02:26:14;;;;;;;0.00;0.00;;;;;;;;;;5032222;28;20100;-72
2022/06/17 02:28:44;;;;;;;0.22;0.22;;;;;;;;;;5035105;28;20061;-71
2022/06/17 02:31:14;;;;;;;0.00;0.00;;;;;;;;;;5035009;28;20516;-71
2022/06/17 02:33:43;;;;;;;0.00;0.00;;;;;;;;;;5035417;28;20063;-72
2022/06/17 02:36:15;;;;;;;0.00;0.00;;;;;;;;;;5039152;28;20080;-71
2022/06/17 02:38:45;;;;;;;0.10;0.10;;;;;;;;;;5041857;28;20134;-71
2022/06/17 02:41:16;;;;;;;0.00;0.00;;;;;;;;;;5055266;28;20135;-71
2022/06/17 02:43:48;;;;;;;0.00;0.00;;;;;;;;;;5054842;28;20102;-71
2022/06/17 02:46:18;;;;;;;0.00;0.00;;;;;;;;;;5040509;28;20049;-71
2022/06/17 02:48:49;;;;;;;0.00;0.00;;;;;;;;;;5034348;28;20449;-71
2022/06/17 02:51:18;;;;;;;0.10;0.10;;;;;;;;;;5042749;28;20092;-72
2022/06/17 02:53:47;;;;;;;0.15;0.15;;;;;;;;;;5054362;28;20481;-71
2022/06/17 02:56:16;;;;;;;0.00;0.00;;;;;;;;;;5054183;28;20451;-71
2022/06/17 02:58:52;;;;;;;0.38;0.38;;;;;;;;;;5054194;28;20083;-71
2022/06/17 03:01:22;;;;;;;0.00;0.00;;;;;;;;;;5054170;28;20053;-71
2022/06/17 03:03:51;;;;;;;0.20;0.20;;;;;;;;;;5028235;28;20128;-72
2022/06/17 03:06:23;;;;;;;0.00;0.00;;;;;;;;;;5034467;28;20084;-72
2022/06/17 03:08:53;;;;;;;0.00;0.00;;;;;;;;;;5033858;28;20092;-71
2022/06/17 03:11:22;;;;;;;0.35;0.35;;;;;;;;;;5042689;28;20128;-71
2022/06/17 03:13:53;;;;;;;0.00;0.00;;;;;;;;;;5054294;28;20132;-71
2022/06/17 03:16:22;;;;;;;0.47;0.47;;;;;;;;;;5054111;28;20455;-71
2022/06/17 03:18:51;;;;;;;0.35;0.35;;;;;;;;;;5051342;28;20128;-71
2022/06/17 03:21:22;;;;;;;0.57;0.57;;;;;;;;;;5033789;28;20132;-71
2022/06/17 03:23:53;;;;;;;0.15;0.15;;;;;;;;;;5034177;28;20072;-71
2022/06/17 03:26:23;;;;;;;0.00;0.00;;;;;;;;;;5034110;28;20079;-71
2022/06/17 03:28:53;;;;;;;0.10;0.10;;;;;;;;;;5041500;28;20060;-71
2022/06/17 03:31:22;;;;;;;0.00;0.00;;;;;;;;;;5053103;28;20547;-71
2022/06/17 03:33:55;;;;;;;0.70;0.70;;;;;;;;;;5053467;28;20481;-71
2022/06/17 03:36:26;;;;;;;0.00;0.00;;;;;;;;;;5046764;28;20489;-71
2022/06/17 03:38:57;;;;;;;0.10;0.10;;;;;;;;;;5031675;28;20092;-71
2022/06/17 03:41:26;;;;;;;0.00;0.00;;;;;;;;;;5041171;28;20124;-71
2022/06/17 03:43:59;;;;;;;0.10;0.10;;;;;;;;;;5053683;28;20111;-72
2022/06/17 03:46:29;;;;;;;0.00;0.00;;;;;;;;;;5053522;28;20704;-71
2022/06/17 03:49:01;;;;;;;4.75;0.98;;;;;;;;;;5053189;28;20281;-71
2022/06/17 03:51:30;;;;;;;0.00;0.00;;;;;;;;;;5059094;28;20125;-71
2022/06/17 03:53:59;;;;;;;0.00;0.00;;;;;;;;;;5050077;28;20074;-71
2022/06/17 03:56:28;;;;;;;0.20;0.20;;;;;;;;;;5033589;28;20459;-71
2022/06/17 03:59:00;;;;;;;0.00;0.00;;;;;;;;;;5032717;28;20084;-71
2022/06/17 04:01:33;;;;;;;0.00;0.00;;;;;;;;;;5033061;28;20068;-71
2022/06/17 04:04:03;;;;;;;0.00;0.00;;;;;;;;;;5033385;28;20056;-71
2022/06/17 04:06:32;;;;;;;0.10;0.10;;;;;;;;;;5032919;28;20128;-72
2022/06/17 04:09:02;;;;;;;0.00;0.00;;;;;;;;;;5032958;28;20081;-71
2022/06/17 04:11:32;;;;;;;0.00;0.00;;;;;;;;;;5043081;28;20287;-71
2022/06/17 04:14:03;;;;;;;0.15;0.15;;;;;;;;;;5052856;28;20473;-71
2022/06/17 04:16:36;;;;;;;0.00;0.00;;;;;;;;;;5053086;28;20081;-71
2022/06/17 04:19:13;;;;;;;0.00;0.00;;;;;;;;;;5034335;28;20496;-71
2022/06/17 04:21:41;;;;;;;0.00;0.00;;;;;;;;;;5052841;28;20131;-71
2022/06/17 04:24:13;;;;;;;0.00;0.00;;;;;;;;;;5052765;28;20045;-71
2022/06/17 04:26:43;;;;;;;0.00;0.00;;;;;;;;;;5046064;28;20124;-72
2022/06/17 04:29:17;;;;;;;0.00;0.00;;;;;;;;;;5032844;28;20072;-71
2022/06/17 04:31:46;;;;;;;0.00;0.00;;;;;;;;;;5045889;28;20096;-71
2022/06/17 04:34:16;;;;;;;0.00;0.00;;;;;;;;;;5052572;28;20288;-72
2022/06/17 04:36:46;;;;;;;0.00;0.00;;;;;;;;;;5052225;28;20102;-72
2022/06/17 04:39:20;;;;;;;0.00;0.00;;;;;;;;;;5052864;28;20131;-71
2022/06/17 04:41:51;;;;;;;0.00;0.00;;;;;;;;;;5052132;28;20502;-71
2022/06/17 04:44:21;;;;;;;0.20;0.20;;;;;;;;;;5042145;28;20121;-71
2022/06/17 04:46:51;;;;;;;0.00;0.00;;;;;;;;;;5053584;28;20102;-71
2022/06/17 04:49:20;;;;;;;0.47;0.43;;;;;;;;;;5072382;28;20139;-71
2022/06/17 04:51:49;;;;;;;0.52;0.52;;;;;;;;;;5060039;28;20144;-71
2022/06/17 04:54:18;;;;;;;2.63;0.70;;;;;;;;;;5052027;28;20088;-71
2022/06/17 04:56:48;;;;;;;0.00;0.00;;;;;;;;;;5051746;28;20045;-71
2022/06/17 04:59:17;;;;;;;0.00;0.00;;;;;;;;;;5052360;28;20076;-71
2022/06/17 05:01:48;;;;;;;0.30;0.30;;;;;;;;;;5042058;28;20052;-71
2022/06/17 05:04:17;;;;;;;0.00;0.00;;;;;;;;;;5032102;28;20132;-71
2022/06/17 05:06:46;;;;;;;0.00;0.00;;;;;;;;;;5031496;28;20081;-71
2022/06/17 05:09:20;;;;;;;0.00;0.00;;;;;;;;;;5032117;28;20527;-71
2022/06/17 05:11:50;;;;;;;0.08;0.08;;;;;;;;;;5043862;28;20603;-71
2022/06/17 05:14:23;;;;;;;0.10;0.10;;;;;;;;;;5051828;28;20473;-71
2022/06/17 05:16:53;;;;;;;0.00;0.00;;;;;;;;;;5051243;28;20132;-71
2022/06/17 05:19:25;;;;;;;0.00;0.00;;;;;;;;;;5037119;28;20127;-71
2022/06/17 05:21:53;;;;;;;0.00;0.00;;;;;;;;;;5031524;28;20049;-71
2022/06/17 05:24:22;;;;;;;0.15;0.15;;;;;;;;;;5031926;28;20081;-71
2022/06/17 05:26:52;;;;;;;0.00;0.00;;;;;;;;;;5031098;28;20404;-71
2022/06/17 05:29:20;;;;;;;0.00;0.00;;;;;;;;;;5031902;28;20140;-71
2022/06/17 05:31:49;;;;;;;0.00;0.00;;;;;;;;;;5030997;28;20068;-71
2022/06/17 05:34:20;;;;;;;0.00;0.00;;;;;;;;;;5035539;28;20045;-71
2022/06/17 05:36:48;;;;;;;0.00;0.00;;;;;;;;;;5033326;28;20575;-71
2022/06/17 05:39:16;;;;;;;0.00;0.00;;;;;;;;;;5031612;28;20091;-72
2022/06/17 05:41:45;;;;;;;0.00;0.00;;;;;;;;;;5031425;28;20099;-71
2022/06/17 05:44:14;;;;;;;0.30;0.30;;;;;;;;;;5034040;28;20092;-72
2022/06/17 05:46:43;;;;;;;0.00;0.00;;;;;;;;;;5050949;28;20040;-71
2022/06/17 05:49:11;;;;;;;0.00;0.00;;;;;;;;;;5051440;28;20126;-71
2022/06/17 05:51:41;;;;;;;0.00;0.00;;;;;;;;;;5050878;28;20137;-71
2022/06/17 05:54:10;;;;;;;0.00;0.00;;;;;;;;;;5031482;28;20091;-72
2022/06/17 05:56:38;;;;;;;0.13;0.13;;;;;;;;;;5030829;28;20135;-71
2022/06/17 05:59:06;;;;;;;0.00;0.00;;;;;;;;;;5031315;28;20085;-72
2022/06/17 06:01:35;;;;;;;0.00;0.00;;;;;;;;;;5030674;28;20248;-72
2022/06/17 06:04:04;;;;;;;0.00;0.00;;;;;;;;;;5031166;28;20080;-72
2022/06/17 06:06:32;;;;;;;0.00;0.00;;;;;;;;;;5030564;28;20046;-71
2022/06/17 06:09:02;;;;;;;0.00;0.00;;;;;;;;;;5031050;28;20129;-71
2022/06/17 06:11:30;;;;;;;0.00;0.00;;;;;;;;;;5040924;28;20088;-72
2022/06/17 06:13:59;;;;;;;1.70;1.50;;;;;;;;;;5051218;28;20330;-71
2022/06/17 06:16:27;;;;;;;0.40;0.40;;;;;;;;;;5050653;28;20481;-72
2022/06/17 06:18:56;;;;;;;0.00;0.00;;;;;;;;;;5050300;28;20131;-72
2022/06/17 06:21:24;;;;;;;0.00;0.00;;;;;;;;;;5051286;28;20081;-72
2022/06/17 06:23:56;;;;;;;0.00;0.00;;;;;;;;;;5051069;28;20087;-72
2022/06/17 06:26:26;;;;;;;0.35;0.35;;;;;;;;;;5044677;28;20042;-72
2022/06/17 06:28:56;;;;;;;0.32;0.32;;;;;;;;;;5030462;28;20087;-72
2022/06/17 06:31:26;;;;;;;0.00;0.00;;;;;;;;;;5031216;28;20049;-72
2022/06/17 06:33:55;;;;;;;0.00;0.00;;;;;;;;;;5031185;28;20041;-72
2022/06/17 06:36:24;;;;;;;0.00;0.00;;;;;;;;;;5031161;28;20162;-72
2022/06/17 06:38:53;;;;;;;0.00;0.00;;;;;;;;;;5030880;28;20053;-72
2022/06/17 06:41:21;;;;;;;0.00;0.00;;;;;;;;;;5039625;28;20128;-72
2022/06/17 06:43:52;;;;;;;0.00;0.00;;;;;;;;;;5033798;28;20414;-72
2022/06/17 06:46:23;;;;;;;0.20;0.20;;;;;;;;;;5031582;28;20057;-72
2022/06/17 06:48:57;;;;;;;0.00;0.00;;;;;;;;;;5030290;28;20456;-72
2022/06/17 06:51:26;;;;;;;0.00;0.00;;;;;;;;;;5047227;28;20060;-72
2022/06/17 06:53:54;;;;;;;0.00;0.00;;;;;;;;;;5070726;28;20460;-71
2022/06/17 06:56:23;;;;;;;0.00;0.00;;;;;;;;;;5070672;28;20128;-72
2022/06/17 06:58:53;;;;;;;0.00;0.00;;;;;;;;;;5070512;28;20055;-72
2022/06/17 07:01:22;;;;;;;0.35;0.35;;;;;;;;;;5041124;28;20092;-72
2022/06/17 07:03:50;;;;;;;0.08;0.08;;;;;;;;;;5030239;28;20099;-72
2022/06/17 07:06:19;;;;;;;0.00;0.00;;;;;;;;;;5032195;28;20045;-73
2022/06/17 07:08:48;;;;;;;0.55;0.32;;;;;;;;;;5047683;28;20077;-72
2022/06/17 07:11:17;;;;;;;0.00;0.00;;;;;;;;;;5048903;28;20049;-71
2022/06/17 07:13:46;;;;;;;0.63;0.60;;;;;;;;;;5054193;28;20049;-71
2022/06/17 07:16:16;;;;;;;0.15;0.15;;;;;;;;;;5054297;28;20084;-71
2022/06/17 07:18:44;;;;;;;0.10;0.10;;;;;;;;;;5035437;28;20089;-71
2022/06/17 07:21:14;;;;;;;0.00;0.00;;;;;;;;;;5034124;28;20069;-71
2022/06/17 07:23:44;;;;;;;0.10;0.10;;;;;;;;;;5034132;28;20049;-71
2022/06/17 07:26:14;;;;;;;1.10;0.50;;;;;;;;;;5049194;28;20045;-71
2022/06/17 07:28:42;;;;;;;0.20;0.20;;;;;;;;;;5033285;28;20470;-71
2022/06/17 07:31:11;;;;;;;0.00;0.00;;;;;;;;;;5033617;28;20049;-71
2022/06/17 07:33:40;;;;;;;0.05;0.05;;;;;;;;;;5033483;28;20092;-71
2022/06/17 07:39:53;;;;;;;0.10;0.10;;;;;;;;;;5033311;28;20100;-71
2022/06/17 07:41:50;;;;;;;0.00;0.00;;;;;;;;;;5048686;28;20055;-72
2022/06/17 07:44:18;;;;;;;1.98;0.80;;;;;;;;;;5053512;28;20110;-72
2022/06/17 07:46:47;;;;;;;0.00;0.00;;;;;;;;;;5052122;28;20465;-71
2022/06/17 07:49:17;;;;;;;0.00;0.00;;;;;;;;;;5053419;28;20560;-71
2022/06/17 07:51:46;;;;;;;0.00;0.00;;;;;;;;;;5035191;28;20086;-71
2022/06/17 07:54:15;;;;;;;0.10;0.10;;;;;;;;;;5023409;28;20082;-71
2022/06/17 07:56:44;;;;;;;0.00;0.00;;;;;;;;;;5012859;28;20057;-71
2022/06/17 07:59:12;;;;;;;0.00;0.00;;;;;;;;;;5014080;28;20049;-71
2022/06/17 08:01:41;;;;;;;0.00;0.00;;;;;;;;;;5013167;28;20478;-71
2022/06/17 08:04:10;;;;;;;0.00;0.00;;;;;;;;;;5013373;28;20080;-71
2022/06/17 08:06:41;;;;;;;0.98;0.45;;;;;;;;;;5013505;28;20096;-71
2022/06/17 08:09:09;;;;;;;0.45;0.45;;;;;;;;;;5013745;28;20054;-71
2022/06/17 08:11:38;;;;;;;0.10;0.10;;;;;;;;;;5023742;28;20061;-71
2022/06/17 08:14:07;;;;;;;0.20;0.20;;;;;;;;;;5033248;28;20472;-71
2022/06/17 08:16:36;;;;;;;1.25;1.15;;;;;;;;;;5032493;28;20053;-71
2022/06/17 08:19:07;;;;;;;0.00;0.00;;;;;;;;;;5032973;28;20063;-71
2022/06/17 08:21:36;;;;;;;0.00;0.00;;;;;;;;;;5032775;28;20045;-71
2022/06/17 08:24:26;;;;;;;0.32;0.20;;;;;;;;;;5032528;28;20046;-71
2022/06/17 08:26:55;;;;;;;0.00;0.00;;;;;;;;;;5013368;28;20038;-71
2022/06/17 08:29:26;;;;;;;0.00;0.00;;;;;;;;;;5013139;28;20042;-71
2022/06/17 08:35:01;;;;;;;0.00;0.00;;;;;;;;;;5012992;28;20085;-71
2022/06/17 08:37:30;;;;;;;0.00;0.00;;;;;;;;;;5012096;28;20108;-72
2022/06/17 08:40:01;;;;;;;0.35;0.35;;;;;;;;;;5013242;28;20116;-72
2022/06/17 08:42:40;;;;;;;0.00;0.00;;;;;;;;;;5014628;28;20534;-72
2022/06/17 08:45:14;;;;;;;5.75;0.38;;;;;;;;;;5007217;28;20049;-71
2022/06/17 08:47:46;;;;;;;4.40;1.30;;;;;;;;;;5012839;28;20100;-72
2022/06/17 08:50:29;;;;;;;0.45;0.45;;;;;;;;;;5013452;28;20064;-72
2022/06/17 08:53:07;;;;;;;0.00;0.00;;;;;;;;;;5012761;28;20054;-72
2022/06/17 08:55:41;;;;;;;0.38;0.38;;;;;;;;;;5013341;28;20089;-72
2022/06/17 08:58:14;;;;;;;0.10;0.10;;;;;;;;;;5013936;28;20489;-72
2022/06/17 09:00:47;;;;;;;0.00;0.00;;;;;;;;;;5014713;28;20057;-72
2022/06/17 09:03:30;;;;;;;0.65;0.65;;;;;;;;;;5014830;28;20046;-72
2022/06/17 09:06:07;;;;;;;0.00;0.00;;;;;;;;;;5013360;28;20050;-71
2022/06/17 09:08:43;;;;;;;0.08;0.08;;;;;;;;;;5012471;28;20058;-71
2022/06/17 09:11:18;;;;;;;0.00;0.00;;;;;;;;;;5019291;28;20095;-71
2022/06/17 09:13:52;;;;;;;0.00;0.00;;;;;;;;;;5032754;28;20468;-71
2022/06/17 09:16:26;;;;;;;0.22;0.22;;;;;;;;;;5025611;28;20073;-71
2022/06/17 09:18:57;;;;;;;0.00;0.00;;;;;;;;;;5011489;28;20513;-71
2022/06/17 09:21:27;;;;;;;0.08;0.08;;;;;;;;;;5011817;28;20042;-71
2022/06/17 09:23:57;;;;;;;0.17;0.17;;;;;;;;;;4996053;28;20082;-72
2022/06/17 09:26:29;;;;;;;0.00;0.00;;;;;;;;;;5011599;28;20433;-71
2022/06/17 09:29:00;;;;;;;3.83;1.00;;;;;;;;;;5011837;28;20046;-71
2022/06/17 09:31:32;;;;;;;0.22;0.20;;;;;;;;;;5020570;28;20050;-71
2022/06/17 09:34:04;;;;;;;0.00;0.00;;;;;;;;;;5008201;28;20054;-71
2022/06/17 09:36:36;;;;;;;0.00;0.00;;;;;;;;;;5007672;28;20500;-72
2022/06/17 09:39:08;;;;;;;0.03;0.03;;;;;;;;;;5012008;28;20049;-71
2022/06/17 09:41:40;;;;;;;0.00;0.00;;;;;;;;;;5011934;28;20119;-72
2022/06/17 09:44:11;;;;;;;0.00;0.00;;;;;;;;;;5012052;28;20054;-71
2022/06/17 09:46:41;;;;;;;0.00;0.00;;;;;;;;;;5011546;28;20065;-71
2022/06/17 09:49:16;;;;;;;0.00;0.00;;;;;;;;;;5011596;28;20136;-72
2022/06/17 09:51:46;;;;;;;0.00;0.00;;;;;;;;;;5033698;28;20543;-71
2022/06/17 09:54:17;;;;;;;0.35;0.10;;;;;;;;;;5061627;28;20048;-72
2022/06/17 09:56:49;;;;;;;0.17;0.17;;;;;;;;;;5070494;28;20135;-71
2022/06/17 09:59:21;;;;;;;0.00;0.00;;;;;;;;;;5071377;28;20486;-71
2022/06/17 10:01:49;;;;;;;0.10;0.10;;;;;;;;;;5070895;28;20074;-71
2022/06/17 10:04:18;;;;;;;0.00;0.00;;;;;;;;;;5071231;28;20052;-71
2022/06/17 10:06:55;;;;;;;0.00;0.00;;;;;;;;;;5067622;28;20131;-71
2022/06/17 10:09:30;;;;;;;0.00;0.00;;;;;;;;;;5031029;28;20046;-71
2022/06/17 10:12:04;;;;;;;0.00;0.00;;;;;;;;;;5044588;28;20103;-72
2022/06/17 10:14:42;;;;;;;0.00;0.00;;;;;;;;;;5051211;28;20404;-71
2022/06/17 10:20:04;;;;;;;0.03;0.03;;;;;;;;;;5051100;28;20052;-72
2022/06/17 10:22:39;;;;;;;0.00;0.00;;;;;;;;;;5050989;28;20079;-71
2022/06/17 10:25:14;;;;;;;0.00;0.00;;;;;;;;;;5038229;28;20063;-72
2022/06/17 10:27:51;;;;;;;0.00;0.00;;;;;;;;;;5030499;28;20045;-72
2022/06/17 10:30:23;;;;;;;0.08;0.08;;;;;;;;;;5030932;28;20057;-72
2022/06/17 10:32:53;;;;;;;0.20;0.20;;;;;;;;;;5031161;28;20080;-72
2022/06/17 10:35:25;;;;;;;0.00;0.00;;;;;;;;;;5030745;28;20049;-71
2022/06/17 10:37:54;;;;;;;0.08;0.08;;;;;;;;;;5030642;28;20049;-71
2022/06/17 10:40:25;;;;;;;0.00;0.00;;;;;;;;;;5031088;28;20111;-71
2022/06/17 10:42:57;;;;;;;0.00;0.00;;;;;;;;;;5031163;28;20049;-72
2022/06/17 10:45:26;;;;;;;0.20;0.20;;;;;;;;;;5031213;28;20045;-71
2022/06/17 10:47:57;;;;;;;0.35;0.35;;;;;;;;;;5032546;28;20095;-72
2022/06/17 10:50:27;;;;;;;0.00;0.00;;;;;;;;;;5036296;28;20092;-72
2022/06/17 10:53:05;;;;;;;0.03;0.03;;;;;;;;;;5054383;28;20041;-72
2022/06/17 10:55:36;;;;;;;0.00;0.00;;;;;;;;;;5054682;28;20084;-72
2022/06/17 10:58:11;;;;;;;0.00;0.00;;;;;;;;;;5045900;28;20088;-72
2022/06/17 11:00:45;;;;;;;0.40;0.22;;;;;;;;;;5032744;28;20045;-71
2022/06/17 11:03:18;;;;;;;0.00;0.00;;;;;;;;;;5034704;28;20496;-71
2022/06/17 11:05:53;;;;;;;0.00;0.00;;;;;;;;;;5034582;28;20049;-71
2022/06/17 11:08:21;;;;;;;;;;;;;;;;;;5034339;28;20053;-72
2022/06/17 11:10:52;;;;;;;0.00;0.00;;;;;;;;;;5038385;28;19967;-72
2022/06/17 11:13:22;;;;;;;0.00;0.00;;;;;;;;;;5054492;28;20509;-72
2022/06/17 11:15:53;;;;;;;0.00;0.00;;;;;;;;;;5043599;28;20065;-73
2022/06/17 11:18:24;;;;;;;0.00;0.00;;;;;;;;;;5035012;28;20073;-72
2022/06/17 11:20:57;;;;;;;0.00;0.00;;;;;;;;;;5035821;28;20551;-73
2022/06/17 11:23:29;;;;;;;0.00;0.00;;;;;;;;;;5034469;28;20072;-72
2022/06/17 11:26:08;;;;;;;0.00;0.00;;;;;;;;;;5034136;28;20049;-73
2022/06/17 11:28:39;;;;;;;0.00;0.00;;;;;;;;;;5054651;28;20482;-71
2022/06/17 11:31:12;;;;;;;0.35;0.35;;;;;;;;;;5075127;28;20088;-71
2022/06/17 11:33:41;;;;;;;0.10;0.10;;;;;;;;;;5039603;28;20041;-71
2022/06/17 11:36:16;;;;;;;0.00;0.00;;;;;;;;;;5045098;28;20056;-71
2022/06/17 11:38:45;;;;;;;0.10;0.10;;;;;;;;;;5053870;28;20114;-71
2022/06/17 11:41:23;;;;;;;0.08;0.08;;;;;;;;;;5053482;28;20060;-71
2022/06/17 11:43:54;;;;;;;0.10;0.00;;;;;;;;;;5054019;28;20079;-71
2022/06/17 11:46:24;;;;;;;0.00;0.00;;;;;;;;;;5053975;28;20053;-72
2022/06/17 11:48:54;;;;;;;0.00;0.00;;;;;;;;;;5050869;28;20135;-73
2022/06/17 11:51:26;;;;;;;0.00;0.00;;;;;;;;;;5042684;28;20511;-72
2022/06/17 11:53:56;;;;;;;0.00;0.00;;;;;;;;;;5053558;28;20084;-71
2022/06/17 11:56:29;;;;;;;0.00;0.00;;;;;;;;;;5053203;28;20147;-72
2022/06/17 11:59:13;;;;;;;0.00;0.00;;;;;;;;;;4997290;28;20053;-71
2022/06/17 12:01:43;;;;;;;0.00;0.00;;;;;;;;;;5033587;28;20417;-71
2022/06/17 12:04:30;;;;;;;0.00;0.00;;;;;;;;;;5033768;28;20473;-71
2022/06/17 12:06:59;;;;;;;0.30;0.30;;;;;;;;;;5032681;28;20045;-71
2022/06/17 12:09:31;;;;;;;0.00;0.00;;;;;;;;;;5032759;28;20052;-72
2022/06/17 12:12:01;;;;;;;0.00;0.00;;;;;;;;;;5046604;28;20099;-72
2022/06/17 12:14:34;;;;;;;0.03;0.03;;;;;;;;;;5053594;28;20415;-72
2022/06/17 12:17:11;;;;;;;0.00;0.00;;;;;;;;;;5052925;28;20051;-72
2022/06/17 12:19:53;;;;;;;1.88;0.38;;;;;;;;;;5044684;28;20080;-71
2022/06/17 12:22:23;;;;;;;0.00;0.00;;;;;;;;;;5053416;28;20122;-72
2022/06/17 12:24:56;;;;;;;0.28;0.28;;;;;;;;;;5034230;28;20485;-72
2022/06/17 12:27:27;;;;;;;0.00;0.00;;;;;;;;;;5036978;28;20090;-72
2022/06/17 12:30:20;;;;;;;0.00;0.00;;;;;;;;;;5053599;28;20493;-72
2022/06/17 12:32:51;;;;;;;0.00;0.00;;;;;;;;;;5053275;28;20136;-72
2022/06/17 12:35:25;;;;;;;0.00;0.00;;;;;;;;;;5053334;28;20052;-71
2022/06/17 12:37:57;;;;;;;0.00;0.00;;;;;;;;;;5052896;28;20041;-71
2022/06/17 12:40:30;;;;;;;0.00;0.00;;;;;;;;;;5046327;28;20081;-71
2022/06/17 12:43:05;;;;;;;0.00;0.00;;;;;;;;;;5034116;28;20589;-71
2022/06/17 12:45:38;;;;;;;0.10;0.00;;;;;;;;;;5034593;28;20045;-71
2022/06/17 12:48:13;;;;;;;0.00;0.00;;;;;;;;;;5034560;28;20055;-71
2022/06/17 12:53:39;;;;;;;0.00;0.00;;;;;;;;;;5052933;28;20107;-71
2022/06/17 12:56:16;;;;;;;0.10;0.00;;;;;;;;;;5052722;28;20079;-71
2022/06/17 12:58:56;;;;;;;0.10;0.00;;;;;;;;;;5026416;28;20417;-71
2022/06/17 13:01:32;;;;;;;0.00;0.00;;;;;;;;;;5032128;28;20052;-71
2022/06/17 13:04:09;;;;;;;0.00;0.00;;;;;;;;;;5032427;28;20045;-71
2022/06/17 13:06:42;;;;;;;0.00;0.00;;;;;;;;;;5031718;28;20489;-72
2022/06/17 13:09:14;;;;;;;0.00;0.00;;;;;;;;;;5032140;28;20136;-72
2022/06/17 13:11:46;;;;;;;0.10;0.10;;;;;;;;;;5043098;28;20107;-71
2022/06/17 13:14:23;;;;;;;0.30;0.10;;;;;;;;;;5047500;28;20123;-71
2022/06/17 13:16:56;;;;;;;0.00;0.00;;;;;;;;;;5031589;28;20500;-71
2022/06/17 13:19:28;;;;;;;0.00;0.00;;;;;;;;;;5031696;28;20411;-71
2022/06/17 13:22:01;;;;;;;0.15;0.15;;;;;;;;;;5031814;28;20052;-70
2022/06/17 13:24:32;;;;;;;0.03;0.03;;;;;;;;;;5043329;28;20053;-71
2022/06/17 13:27:04;;;;;;;0.00;0.00;;;;;;;;;;5042057;28;20378;-71
2022/06/17 13:29:38;;;;;;;0.10;0.10;;;;;;;;;;5031273;28;20080;-72
2022/06/17 13:32:14;;;;;;;0.00;0.00;;;;;;;;;;5032038;28;20042;-71
2022/06/17 13:34:45;;;;;;;0.05;0.05;;;;;;;;;;5031826;28;20049;-71
2022/06/17 13:37:17;;;;;;;0.00;0.00;;;;;;;;;;5031352;28;20077;-72
2022/06/17 13:39:48;;;;;;;0.00;0.00;;;;;;;;;;5031635;28;20045;-72
2022/06/17 13:42:18;;;;;;;0.00;0.00;;;;;;;;;;5046402;28;20045;-72
2022/06/17 13:44:51;;;;;;;0.00;0.00;;;;;;;;;;5051630;28;20100;-72
2022/06/17 13:47:25;;;;;;;0.00;0.00;;;;;;;;;;5050854;28;20044;-72
2022/06/17 13:49:55;;;;;;;0.00;0.00;;;;;;;;;;5024608;28;20398;-71
2022/06/17 13:52:28;;;;;;;0.00;0.00;;;;;;;;;;5064985;28;20083;-72
2022/06/17 13:55:02;;;;;;;0.00;0.00;;;;;;;;;;5071325;28;20057;-72
2022/06/17 13:57:34;;;;;;;0.00;0.00;;;;;;;;;;5071155;28;20058;-72
2022/06/17 14:00:17;;;;;;;0.00;0.00;;;;;;;;;;5071097;28;20044;-72
2022/06/17 14:02:55;;;;;;;0.00;0.00;;;;;;;;;;5070673;28;20485;-71
2022/06/17 14:05:27;;;;;;;0.13;0.13;;;;;;;;;;5057486;28;20049;-72
2022/06/17 14:08:03;;;;;;;0.00;0.00;;;;;;;;;;5022536;28;20080;-73
2022/06/17 14:10:35;;;;;;;0.03;0.03;;;;;;;;;;5032707;28;20236;-72
2022/06/17 14:13:17;;;;;;;0.25;0.15;;;;;;;;;;5050995;28;20489;-72
2022/06/17 14:15:48;;;;;;;0.00;0.00;;;;;;;;;;5051063;28;20156;-72
2022/06/17 14:18:21;;;;;;;0.00;0.00;;;;;;;;;;5050532;28;20150;-70
2022/06/17 14:20:58;;;;;;;0.00;0.00;;;;;;;;;;5051151;28;20100;-72
2022/06/17 14:23:45;;;;;;;0.00;0.00;;;;;;;;;;5041793;28;20088;-71
2022/06/17 14:26:15;;;;;;;0.60;0.30;;;;;;;;;;5037110;28;20053;-71
2022/06/17 14:28:58;;;;;;;0.00;0.00;;;;;;;;;;5036982;28;20073;-71
2022/06/17 14:31:34;;;;;;;0.08;0.08;;;;;;;;;;5046048;28;20542;-71
2022/06/17 14:34:06;;;;;;;0.10;0.10;;;;;;;;;;5057350;28;20442;-71
2022/06/17 14:36:49;;;;;;;0.00;0.00;;;;;;;;;;5056505;28;20485;-71
2022/06/17 14:39:24;;;;;;;0.00;0.00;;;;;;;;;;5045786;28;20097;-71
2022/06/17 14:42:05;;;;;;;0.25;0.17;;;;;;;;;;5028869;28;20049;-71
2022/06/17 14:44:35;;;;;;;0.00;0.00;;;;;;;;;;5037215;28;20068;-72
2022/06/17 14:47:23;;;;;;;0.00;0.00;;;;;;;;;;5036595;28;20049;-72
2022/06/17 14:50:04;;;;;;;0.00;0.00;;;;;;;;;;5037080;28;20129;-71
2022/06/17 14:52:35;;;;;;;0.00;0.00;;;;;;;;;;5073033;28;20101;-72
2022/06/17 14:55:16;;;;;;;0.00;0.00;;;;;;;;;;5077169;28;20065;-71
2022/06/17 14:57:47;;;;;;;0.00;0.00;;;;;;;;;;5040753;28;20108;-72
2022/06/17 15:00:17;;;;;;;0.00;0.00;;;;;;;;;;5037592;28;20136;-72
2022/06/17 15:02:46;;;;;;;0.13;0.13;;;;;;;;;;5037192;28;20139;-72
2022/06/17 15:05:23;;;;;;;0.00;0.00;;;;;;;;;;5037370;28;20049;-70
2022/06/17 15:07:54;;;;;;;0.00;0.00;;;;;;;;;;5036539;28;20059;-71
2022/06/17 15:10:24;;;;;;;2.95;0.88;;;;;;;;;;5037160;28;20455;-71
2022/06/17 15:12:55;;;;;;;0.00;0.00;;;;;;;;;;5054835;28;20045;-71
2022/06/17 15:15:25;;;;;;;0.00;0.00;;;;;;;;;;5037159;28;20056;-71
2022/06/17 15:17:56;;;;;;;0.00;0.00;;;;;;;;;;5036370;28;20053;-71
2022/06/17 15:20:27;;;;;;;0.00;0.00;;;;;;;;;;5037164;28;20110;-71